Time;durP1;ratioP1;P1;durP2;ratioP2;P2;SDS_P1;SDS_P2;PMS_P1;PMS_P2;Temp;Humidity;BMP_temperature;BMP_pressure;BME280_temperature;BME280_humidity;BME280_pressure;Samples;Min_cycle;Max_cycle;Signal;HPM_P1;HPM_P2
2022/07/15 00:01:33;;;;;;;;;4.00;4.00;;;;;26.84;38.68;101873.56;5077706;28;45356;-80
2022/07/15 00:03:59;;;;;;;;;3.33;3.33;;;;;26.80;39.04;101865.63;5077739;28;45438;-80
2022/07/15 00:06:25;;;;;;;;;3.00;3.00;;;;;26.76;39.04;101869.41;5077197;28;45308;-80
2022/07/15 00:08:50;;;;;;;;;4.00;4.00;;;;;26.73;38.76;101869.50;5077054;28;47393;-80
2022/07/15 00:11:16;;;;;;;;;7.00;4.00;;;;;26.69;39.42;101873.31;5077050;28;61521;-81
2022/07/15 00:13:41;;;;;;;;;3.67;3.67;;;;;26.64;39.23;101862.66;5058605;28;46044;-79
2022/07/15 00:16:06;;;;;;;;;4.00;4.00;;;;;26.62;39.31;101878.06;5077081;28;61448;-79
2022/07/15 00:18:32;;;;;;;;;4.00;4.00;;;;;26.56;39.20;101873.78;5077207;28;46496;-80
2022/07/15 00:20:57;;;;;;;;;5.00;5.00;;;;;26.53;39.33;101876.63;5077131;28;45349;-81
2022/07/15 00:23:23;;;;;;;;;4.00;4.00;;;;;26.48;39.79;101889.47;5076159;28;64194;-80
2022/07/15 00:25:48;;;;;;;;;5.00;5.00;;;;;26.43;39.68;101891.47;5077715;28;45379;-80
2022/07/15 00:28:13;;;;;;;;;5.00;5.00;;;;;26.37;39.78;101889.84;5076070;28;60083;-79
2022/07/15 00:30:40;;;;;;;;;4.67;4.00;;;;;26.32;40.03;101882.81;5077499;28;45373;-81
2022/07/15 00:33:06;;;;;;;;;4.00;4.00;;;;;26.28;39.50;101890.19;5077506;28;45378;-79
2022/07/15 00:35:33;;;;;;;;;6.00;3.67;;;;;26.27;39.95;101890.25;5076517;28;45151;-81
2022/07/15 00:37:59;;;;;;;;;4.00;3.00;;;;;26.22;39.76;101897.66;5058943;28;46280;-81
2022/07/15 00:40:24;;;;;;;;;4.67;4.00;;;;;26.16;40.45;101900.59;5077169;28;45334;-80
2022/07/15 00:42:50;;;;;;;;;4.33;3.00;;;;;26.09;40.65;101889.97;5077346;28;45332;-80
2022/07/15 00:45:17;;;;;;;;;4.00;4.00;;;;;26.07;40.22;101907.22;5077463;28;45270;-80
2022/07/15 00:47:54;;;;;;;;;7.33;4.00;;;;;26.03;40.68;101902.84;5077099;28;45683;-82
2022/07/15 00:50:21;;;;;;;;;5.33;4.00;;;;;26.01;40.95;101912.84;5047307;28;45489;-79
2022/07/15 00:52:59;;;;;;;;;4.33;4.00;;;;;25.98;40.82;101907.53;5075350;28;45216;-79
2022/07/15 00:55:28;;;;;;;;;6.00;3.00;;;;;25.94;40.49;101923.03;5058478;28;45909;-79
2022/07/15 00:57:56;;;;;;;;;4.33;3.00;;;;;25.89;40.53;101916.91;5058122;28;46927;-79
2022/07/15 01:00:21;;;;;;;;;4.00;4.00;;;;;25.87;41.29;101918.75;5075057;28;45494;-79
2022/07/15 01:02:52;;;;;;;;;5.33;3.67;;;;;25.85;40.88;101928.75;5076559;28;52417;-81
2022/07/15 01:05:20;;;;;;;;;4.33;3.33;;;;;25.81;41.12;101922.56;5064445;28;45478;-80
2022/07/15 01:07:45;;;;;;;;;4.33;3.67;;;;;25.80;41.43;101930.75;5076423;28;46620;-82
2022/07/15 01:10:11;;;;;;;;;6.33;4.00;;;;;25.76;41.05;101927.25;5058075;28;45376;-81
2022/07/15 01:12:42;;;;;;;;;2.67;2.67;;;;;25.73;41.80;101931.88;5075748;28;59288;-80
2022/07/15 01:15:09;;;;;;;;;3.33;3.33;;;;;25.70;41.98;101940.09;5059721;28;45433;-79
2022/07/15 01:17:34;;;;;;;;;6.33;4.00;;;;;25.67;41.82;101945.56;5076108;28;47546;-79
2022/07/15 01:20:00;;;;;;;;;2.67;2.67;;;;;25.64;41.46;101948.41;5076471;28;45502;-82
2022/07/15 01:22:25;;;;;;;;;3.00;3.00;;;;;25.56;41.55;101938.72;5076838;28;45466;-79
2022/07/15 01:24:51;;;;;;;;;3.00;3.00;;;;;25.54;41.96;101940.59;5076108;28;62866;-79
2022/07/15 01:27:17;;;;;;;;;3.00;3.00;;;;;25.49;41.92;101942.56;5061615;28;47438;-80
2022/07/15 01:29:42;;;;;;;;;5.00;3.33;;;;;25.47;41.71;101952.56;5079623;28;48643;-79
2022/07/15 01:32:08;;;;;;;;;3.00;3.00;;;;;25.43;41.78;101948.19;5079487;28;53275;-83
2022/07/15 01:34:33;;;;;;;;;3.00;3.00;;;;;25.40;41.27;101952.81;5049141;28;45680;-81
2022/07/15 01:36:59;;;;;;;;;3.00;3.00;;;;;25.35;41.67;101942.13;5082268;27;47657;-80
2022/07/15 01:39:24;;;;;;;;;6.00;3.33;;;;;25.33;41.64;101950.31;5061398;28;45447;-81
2022/07/15 01:41:49;;;;;;;;;2.00;2.00;;;;;25.27;41.36;101941.53;5079695;28;59541;-79
2022/07/15 01:44:15;;;;;;;;;2.33;2.33;;;;;25.24;41.48;101939.78;5079396;28;61529;-79
2022/07/15 01:46:40;;;;;;;;;4.33;3.00;;;;;25.22;41.65;101949.78;5079564;28;45812;-80
2022/07/15 01:51:50;;;;;;;;;4.00;2.00;;;;;25.12;41.68;101939.31;5079750;28;45555;-80
2022/07/15 01:54:16;;;;;;;;;4.00;2.33;;;;;25.08;41.74;101952.91;5079647;28;45648;-79
2022/07/15 01:56:42;;;;;;;;;3.00;3.00;;;;;25.05;41.81;101938.59;5079146;28;47241;-79
2022/07/15 01:59:07;;;;;;;;;3.00;3.00;;;;;25.02;41.98;101938.66;5079428;28;45265;-82
2022/07/15 02:01:32;;;;;;;;;2.00;2.00;;;;;24.98;41.67;101942.41;5079126;28;60311;-79
2022/07/15 02:03:58;;;;;;;;;4.67;3.00;;;;;24.95;41.74;101938.00;5079272;28;45327;-80
2022/07/15 02:06:23;;;;;;;;;3.33;3.33;;;;;24.89;41.88;101940.88;5078241;28;65114;-79
2022/07/15 02:08:48;;;;;;;;;3.00;3.00;;;;;24.85;41.75;101936.50;5061196;28;45295;-80
2022/07/15 02:11:14;;;;;;;;;2.67;2.67;;;;;24.79;42.17;101942.09;5060868;28;63289;-81
2022/07/15 02:13:39;;;;;;;;;3.00;3.00;;;;;24.77;41.94;101933.16;5079534;28;45184;-79
2022/07/15 02:16:05;;;;;;;;;4.67;3.00;;;;;24.74;41.52;101936.84;5078798;28;67396;-79
2022/07/15 02:18:30;;;;;;;;;2.33;2.33;;;;;24.70;41.98;101934.25;5079190;28;45330;-79
2022/07/15 02:20:56;;;;;;;;;5.33;4.00;;;;;24.66;41.93;101936.19;5078902;28;45375;-80
2022/07/15 02:23:22;;;;;;;;;3.67;3.00;;;;;24.62;42.51;101937.22;5079040;28;56803;-79
2022/07/15 02:25:47;;;;;;;;;3.33;3.00;;;;;24.61;42.05;101939.94;5079092;28;45326;-79
2022/07/15 02:28:13;;;;;;;;;3.00;3.00;;;;;24.55;42.26;101933.81;5078479;28;45437;-81
2022/07/15 02:30:40;;;;;;;;;3.00;3.00;;;;;24.51;42.61;101933.94;5078907;28;45445;-79
2022/07/15 02:33:07;;;;;;;;;4.33;3.00;;;;;24.46;42.45;101933.19;5061447;28;45553;-79
2022/07/15 02:35:33;;;;;;;;;4.00;4.00;;;;;24.45;42.55;101936.81;5059161;28;45727;-79
2022/07/15 02:37:59;;;;;;;;;3.00;3.00;;;;;24.43;42.50;101931.44;5060868;28;45327;-81
2022/07/15 02:40:25;;;;;;;;;3.00;3.00;;;;;24.40;42.35;101930.69;5079219;28;45214;-80
2022/07/15 02:42:52;;;;;;;;;4.67;2.00;;;;;24.39;42.57;101934.28;5078864;28;45464;-79
2022/07/15 02:45:19;;;;;;;;;2.33;2.33;;;;;24.33;42.85;101924.50;5079034;28;45343;-80
2022/07/15 02:47:44;;;;;;;;;3.33;3.00;;;;;24.31;43.06;101921.88;5078791;28;45455;-80
2022/07/15 02:50:10;;;;;;;;;3.33;3.00;;;;;24.30;42.46;101924.63;5060797;28;45428;-80
2022/07/15 02:52:35;;;;;;;;;4.00;4.00;;;;;24.26;43.29;101933.72;5060088;28;55101;-83
2022/07/15 02:55:01;;;;;;;;;3.33;3.33;;;;;24.20;42.90;101937.50;5078628;28;51945;-81
2022/07/15 02:57:27;;;;;;;;;3.00;3.00;;;;;24.16;42.72;101935.78;5060281;28;45375;-79
2022/07/15 02:59:53;;;;;;;;;5.00;4.33;;;;;24.13;43.30;101949.41;5060776;28;45455;-80
2022/07/15 03:02:18;;;;;;;;;4.00;3.00;;;;;24.11;43.45;101953.03;5078880;28;45457;-80
2022/07/15 03:04:44;;;;;;;;;4.00;3.00;;;;;24.10;43.57;101952.16;5078868;28;46527;-79
2022/07/15 03:07:10;;;;;;;;;3.67;3.67;;;;;24.05;43.47;101946.88;5077801;28;59569;-82
2022/07/15 03:09:36;;;;;;;;;5.33;4.00;;;;;24.01;44.07;101964.09;5060379;28;45398;-81
2022/07/15 03:12:01;;;;;;;;;6.00;5.00;;;;;24.00;43.38;101961.44;5078151;28;45648;-81
2022/07/15 03:14:26;;;;;;;;;6.00;3.00;;;;;23.97;43.59;101956.09;5077275;28;67290;-81
2022/07/15 03:16:52;;;;;;;;;5.33;4.00;;;;;23.92;43.73;101956.25;5077601;28;60251;-80
2022/07/15 03:19:17;;;;;;;;;3.00;3.00;;;;;23.90;43.92;101960.78;5078698;27;45200;-82
2022/07/15 03:21:42;;;;;;;;;5.00;3.67;;;;;23.90;43.70;101958.09;5077855;28;63270;-80
2022/07/15 03:24:08;;;;;;;;;3.67;3.67;;;;;23.85;43.59;101968.13;5076926;28;52057;-80
2022/07/15 03:26:33;;;;;;;;;6.00;3.67;;;;;23.83;44.12;101974.50;5077015;28;55809;-79
2022/07/15 03:29:00;;;;;;;;;5.67;3.00;;;;;23.80;44.03;101975.44;5077766;28;53712;-79
2022/07/15 03:31:26;;;;;;;;;6.00;6.00;;;;;23.76;43.95;101971.94;5078511;28;45409;-78
2022/07/15 03:33:51;;;;;;;;;5.00;5.00;;;;;23.74;44.11;101967.50;5078374;28;45489;-79
2022/07/15 03:36:17;;;;;;;;;5.00;4.00;;;;;23.72;44.42;101961.28;5077652;28;63939;-79
2022/07/15 03:38:42;;;;;;;;;4.00;2.00;;;;;23.66;44.46;101959.63;5077651;28;45626;-79
2022/07/15 03:41:08;;;;;;;;;7.33;5.00;;;;;23.64;44.71;101955.19;5078210;28;45307;-79
2022/07/15 03:43:34;;;;;;;;;5.67;4.00;;;;;23.61;44.45;101941.75;5077513;28;46598;-79
2022/07/15 03:45:59;;;;;;;;;6.00;4.00;;;;;23.61;44.65;101950.72;5077206;28;64656;-80
2022/07/15 03:48:24;;;;;;;;;5.67;3.00;;;;;23.60;44.52;101953.47;5076748;28;57256;-81
2022/07/15 03:50:50;;;;;;;;;3.00;3.00;;;;;23.58;44.62;101942.72;5077051;28;45504;-80
2022/07/15 03:53:15;;;;;;;;;5.33;3.33;;;;;23.55;44.80;101941.91;5059422;28;45744;-80
2022/07/15 03:55:40;;;;;;;;;5.00;4.00;;;;;23.53;44.72;101948.22;5077690;28;45406;-80
2022/07/15 03:58:06;;;;;;;;;3.00;3.00;;;;;23.50;44.94;101947.44;5077359;28;53520;-79
2022/07/15 04:00:31;;;;;;;;;3.67;3.67;;;;;23.49;45.25;101951.94;5058568;28;49951;-80
2022/07/15 04:02:56;;;;;;;;;5.67;4.00;;;;;23.47;44.98;101959.16;5077377;28;57078;-80
2022/07/15 04:05:22;;;;;;;;;6.00;5.00;;;;;23.45;44.64;101960.13;5059561;28;45504;-79
2022/07/15 04:07:48;;;;;;;;;7.00;4.00;;;;;23.45;45.27;101962.81;5039182;28;45392;-81
2022/07/15 04:10:14;;;;;;;;;5.00;5.00;;;;;23.42;45.05;101955.69;5072970;28;60769;-78
2022/07/15 04:12:41;;;;;;;;;6.00;4.00;;;;;23.42;45.35;101963.78;5077645;28;46871;-79
2022/07/15 04:15:07;;;;;;;;;7.00;4.33;;;;;23.39;45.31;101966.56;5077407;28;45337;-82
2022/07/15 04:17:32;;;;;;;;;5.00;5.00;;;;;23.35;45.43;101953.19;5077572;28;45513;-80
2022/07/15 04:19:57;;;;;;;;;4.00;4.00;;;;;23.33;45.44;101968.50;5077377;28;45407;-79
2022/07/15 04:22:23;;;;;;;;;4.00;3.00;;;;;23.32;45.41;101973.00;5076176;28;64149;-79
2022/07/15 04:24:48;;;;;;;;;6.00;5.00;;;;;23.31;45.56;101971.22;5076195;28;60817;-79
2022/07/15 04:27:13;;;;;;;;;7.00;4.00;;;;;23.30;45.62;101974.84;5076708;28;45384;-79
2022/07/15 04:29:39;;;;;;;;;4.33;2.33;;;;;23.29;46.06;101975.78;5077035;28;45559;-80
2022/07/15 04:32:04;;;;;;;;;4.00;4.00;;;;;23.30;45.78;101984.75;5058699;28;47594;-80
2022/07/15 04:34:30;;;;;;;;;4.00;4.00;;;;;23.27;46.02;101972.22;5077198;28;45475;-79
2022/07/15 04:36:55;;;;;;;;;8.00;3.00;;;;;23.26;46.04;101981.22;5076404;28;63089;-81
2022/07/15 04:39:20;;;;;;;;;3.33;3.00;;;;;23.23;46.15;101973.25;5076670;28;57539;-80
2022/07/15 04:41:45;;;;;;;;;4.00;4.00;;;;;23.23;46.13;101981.31;5076035;28;71002;-81
2022/07/15 04:44:11;;;;;;;;;4.00;4.00;;;;;23.20;46.16;101978.69;5057617;28;65969;-78
2022/07/15 04:46:36;;;;;;;;;6.00;4.00;;;;;23.20;46.16;101979.56;5071741;28;45473;-77
2022/07/15 04:51:46;;;;;;;;;4.00;4.00;;;;;23.22;46.34;101984.91;5071301;27;45783;-78
2022/07/15 04:54:11;;;;;;;;;5.00;5.00;;;;;23.22;46.84;101982.22;5075629;28;67215;-77
2022/07/15 04:56:37;;;;;;;;;4.33;4.00;;;;;23.20;46.60;101986.78;5074666;28;62174;-77
2022/07/15 04:59:02;;;;;;;;;5.00;4.00;;;;;23.17;46.83;101985.03;5076185;28;45437;-77
2022/07/15 05:01:28;;;;;;;;;5.00;4.00;;;;;23.17;46.98;101992.22;5076056;28;67336;-77
2022/07/15 05:03:53;;;;;;;;;4.00;4.00;;;;;23.14;47.02;101992.31;5075530;28;45230;-77
2022/07/15 05:06:18;;;;;;;;;4.00;4.00;;;;;23.12;47.12;101992.34;5076096;28;45481;-76
2022/07/15 05:08:43;;;;;;;;;8.67;5.33;;;;;23.12;47.31;101996.84;5076113;28;61388;-76
2022/07/15 05:11:09;;;;;;;;;3.67;2.67;;;;;23.11;47.49;101997.75;5072498;28;71417;-77
2022/07/15 05:13:36;;;;;;;;;1.00;0.00;;;;;23.08;47.99;101997.84;5067058;28;64150;-77
2022/07/15 05:16:02;;;;;;;;;3.00;3.00;;;;;23.02;47.79;101996.16;5072141;28;45606;-77
2022/07/15 05:18:27;;;;;;;;;5.67;4.00;;;;;23.02;47.79;102003.38;5075916;28;45526;-77
2022/07/15 05:20:53;;;;;;;;;5.00;5.00;;;;;23.01;48.16;101999.78;5076564;28;47392;-77
2022/07/15 05:23:19;;;;;;;;;4.33;4.00;;;;;23.01;48.30;101994.41;5065960;28;52167;-77
2022/07/15 05:25:45;;;;;;;;;4.00;4.00;;;;;23.01;48.39;101999.78;5073183;28;45292;-77
2022/07/15 05:28:11;;;;;;;;;4.00;4.00;;;;;23.01;48.41;102002.47;5074649;28;45403;-76
2022/07/15 05:30:37;;;;;;;;;8.33;4.00;;;;;23.01;48.76;102010.56;5077311;28;47673;-77
2022/07/15 05:33:02;;;;;;;;;4.00;4.00;;;;;23.00;48.88;102006.94;5077264;28;45317;-77
2022/07/15 05:35:28;;;;;;;;;4.00;4.00;;;;;23.03;48.93;102021.28;5076752;28;45562;-76
2022/07/15 05:37:53;;;;;;;;;4.33;4.33;;;;;23.03;48.99;102016.78;5075115;28;45166;-77
2022/07/15 05:40:18;;;;;;;;;6.00;4.67;;;;;23.02;49.12;102033.00;5075767;28;62957;-77
2022/07/15 05:42:44;;;;;;;;;5.00;5.00;;;;;22.98;49.16;102027.66;5075155;28;45517;-77
2022/07/15 05:45:09;;;;;;;;;4.00;4.00;;;;;23.00;49.35;102041.97;5075829;28;56792;-77
2022/07/15 05:47:35;;;;;;;;;6.33;5.00;;;;;22.96;49.45;102034.03;5076162;28;45343;-77
2022/07/15 05:50:00;;;;;;;;;4.67;4.67;;;;;22.96;49.81;102034.03;5067202;28;48836;-77
2022/07/15 05:52:26;;;;;;;;;5.00;5.00;;;;;22.96;49.54;102031.31;5072671;28;45492;-77
2022/07/15 05:54:51;;;;;;;;;4.00;4.00;;;;;22.94;50.13;102028.63;5076709;28;45293;-78
2022/07/15 05:57:17;;;;;;;;;5.00;4.00;;;;;22.92;50.23;102030.50;5074537;28;45814;-78
2022/07/15 05:59:43;;;;;;;;;4.33;4.33;;;;;22.84;50.75;102039.59;5075868;28;46487;-79
2022/07/15 06:02:08;;;;;;;;;5.33;4.33;;;;;22.69;51.07;102030.03;5070419;28;45880;-79
2022/07/15 06:04:33;;;;;;;;;7.00;4.33;;;;;22.53;51.52;102029.47;5066926;28;45529;-79
2022/07/15 06:06:59;;;;;;;;;6.00;4.00;;;;;22.46;51.85;102038.56;5053850;28;63565;-79
2022/07/15 06:09:24;;;;;;;;;4.00;4.00;;;;;22.38;52.32;102035.16;5074745;28;55335;-77
2022/07/15 06:11:49;;;;;;;;;4.33;4.33;;;;;22.31;52.48;102037.03;5073291;28;45557;-76
2022/07/15 06:14:15;;;;;;;;;6.33;4.67;;;;;22.27;52.60;102035.34;5079188;28;45241;-77
2022/07/15 06:16:41;;;;;;;;;6.33;4.00;;;;;22.26;52.88;102043.44;5079723;28;45639;-76
2022/07/15 06:19:08;;;;;;;;;8.00;5.67;;;;;22.25;54.02;102033.59;5076194;28;46847;-77
2022/07/15 06:21:34;;;;;;;;;6.00;6.00;;;;;22.23;53.69;102029.13;5078374;28;45195;-78
2022/07/15 06:24:00;;;;;;;;;5.67;5.67;;;;;22.21;53.93;102025.59;5078638;28;45426;-75
2022/07/15 06:26:25;;;;;;;;;5.00;3.67;;;;;22.18;53.89;102032.81;5066143;28;60100;-77
2022/07/15 06:28:50;;;;;;;;;4.00;4.00;;;;;22.17;53.99;102036.44;5065429;28;61293;-76
2022/07/15 06:31:16;;;;;;;;;5.67;5.00;;;;;22.18;54.23;102035.50;5071299;28;52907;-76
2022/07/15 06:33:41;;;;;;;;;5.00;5.00;;;;;22.18;54.52;102031.00;5072468;28;56398;-76
2022/07/15 06:36:07;;;;;;;;;9.00;5.00;;;;;22.21;54.42;102039.03;5070480;28;59534;-77
2022/07/15 06:38:32;;;;;;;;;6.00;6.00;;;;;22.23;53.96;102036.31;5074293;28;46416;-78
2022/07/15 06:40:58;;;;;;;;;10.00;9.00;;;;;22.26;54.14;102043.44;5076897;28;45505;-78
2022/07/15 06:43:23;;;;;;;;;4.67;4.00;;;;;22.28;54.35;102042.50;5077917;28;45410;-77
2022/07/15 06:45:48;;;;;;;;;6.00;6.00;;;;;22.23;55.05;102050.66;5075222;28;61543;-77
2022/07/15 06:48:14;;;;;;;;;4.67;4.67;;;;;22.29;54.17;102048.75;5075512;28;66956;-78
2022/07/15 06:50:39;;;;;;;;;4.67;4.67;;;;;22.32;54.39;102040.63;5077718;28;45501;-79
2022/07/15 06:53:04;;;;;;;;;7.00;5.67;;;;;22.32;55.19;102044.22;5077645;28;46580;-80
2022/07/15 06:55:30;;;;;;;;;5.67;5.00;;;;;22.39;54.96;102051.25;5076422;28;45503;-79
2022/07/15 06:57:55;;;;;;;;;7.00;5.00;;;;;22.44;54.80;102053.88;5076786;28;47444;-78
2022/07/15 07:00:21;;;;;;;;;6.33;5.00;;;;;22.47;54.06;102043.03;5075850;28;46386;-77
2022/07/15 07:02:46;;;;;;;;;6.67;3.67;;;;;22.49;53.59;102042.09;5075552;28;58474;-80
2022/07/15 07:05:11;;;;;;;;;4.67;4.00;;;;;22.54;53.58;102043.81;5077820;28;45338;-79
2022/07/15 07:07:37;;;;;;;;;4.33;4.33;;;;;22.55;53.05;102045.59;5071480;28;46557;-79
2022/07/15 07:10:02;;;;;;;;;12.00;7.33;;;;;22.59;53.62;102047.31;5060336;28;47166;-78
2022/07/15 07:12:28;;;;;;;;;8.00;6.67;;;;;22.63;53.07;102038.22;5072387;27;45587;-80
2022/07/15 07:14:53;;;;;;;;;8.67;7.00;;;;;22.69;53.06;102041.72;5074464;28;50838;-78
2022/07/15 07:17:19;;;;;;;;;17.00;10.33;;;;;22.76;53.31;102047.84;5074702;28;65619;-81
2022/07/15 07:19:45;;;;;;;;;6.00;4.33;;;;;22.81;52.73;102047.78;5075850;28;45469;-81
2022/07/15 07:22:10;;;;;;;;;8.00;3.00;;;;;22.84;52.60;102043.19;5071555;28;45537;-83
2022/07/15 07:24:35;;;;;;;;;14.00;6.33;;;;;22.84;52.53;102037.78;5051009;28;45578;-81
2022/07/15 07:27:01;;;;;;;;;4.00;4.00;;;;;22.87;52.52;102035.06;5072601;28;50183;-80
2022/07/15 07:29:26;;;;;;;;;10.33;10.33;;;;;22.93;52.52;102032.25;5075693;28;60864;-81
2022/07/15 07:31:52;;;;;;;;;7.33;5.00;;;;;22.98;52.24;102038.44;5068835;28;45308;-82
2022/07/15 07:34:18;;;;;;;;;3.33;3.33;;;;;23.04;52.49;102031.16;5072991;28;51624;-83
2022/07/15 07:36:44;;;;;;;;;4.00;4.00;;;;;23.07;52.23;102028.41;5073931;28;46948;-82
2022/07/15 07:39:10;;;;;;;;;9.00;4.00;;;;;23.11;51.89;102032.78;5048424;28;45451;-82
2022/07/15 07:41:36;;;;;;;;;3.33;3.33;;;;;23.15;51.57;102027.28;5074368;28;46733;-80
2022/07/15 07:44:01;;;;;;;;;5.33;4.00;;;;;23.19;51.53;102029.00;5073663;28;58741;-80
2022/07/15 07:46:26;;;;;;;;;4.00;4.00;;;;;23.23;51.34;102028.03;5073943;28;70713;-79
2022/07/15 07:48:52;;;;;;;;;2.33;2.33;;;;;23.30;50.75;102036.84;5075457;28;50910;-81
2022/07/15 07:51:17;;;;;;;;;3.00;3.00;;;;;23.34;49.75;102024.19;5076464;28;45425;-79
2022/07/15 07:53:43;;;;;;;;;3.00;3.00;;;;;23.39;49.59;102033.06;5074525;28;45557;-81
2022/07/15 07:56:08;;;;;;;;;4.00;3.00;;;;;23.41;48.90;102032.09;5073769;28;47489;-79
2022/07/15 07:58:33;;;;;;;;;3.00;3.00;;;;;23.45;49.13;102022.13;5075446;28;64436;-80
2022/07/15 08:00:59;;;;;;;;;3.00;3.00;;;;;23.51;49.06;102030.94;5075358;28;45497;-79
2022/07/15 08:03:24;;;;;;;;;2.33;2.33;;;;;23.55;48.44;102030.91;5076634;28;45347;-79
2022/07/15 08:05:50;;;;;;;;;4.67;4.00;;;;;23.55;47.87;102025.50;5074785;28;46906;-79
2022/07/15 08:08:17;;;;;;;;;3.00;3.00;;;;;23.60;47.76;102021.78;5075977;28;55000;-81
2022/07/15 08:10:45;;;;;;;;;2.33;2.33;;;;;23.64;47.56;102020.78;5076178;28;45596;-79
2022/07/15 08:13:12;;;;;;;;;2.00;2.00;;;;;23.70;47.28;102030.53;5056287;28;45694;-81
2022/07/15 08:15:38;;;;;;;;;6.00;3.00;;;;;23.71;46.94;102016.16;5074801;28;46587;-80
2022/07/15 08:18:03;;;;;;;;;3.00;3.00;;;;;23.76;47.13;102016.91;5075484;28;45336;-80
2022/07/15 08:20:29;;;;;;;;;3.00;3.00;;;;;23.79;46.36;102015.00;5076415;28;45437;-79
2022/07/15 08:23:01;;;;;;;;;4.00;3.00;;;;;23.84;45.27;102020.28;5076467;28;45515;-79
2022/07/15 08:25:31;;;;;;;;;6.67;3.00;;;;;23.89;45.53;102010.28;5075804;28;47533;-82
2022/07/15 08:27:58;;;;;;;;;7.00;5.00;;;;;23.93;45.74;102013.78;5073720;28;45518;-83
2022/07/15 08:30:24;;;;;;;;;3.00;3.00;;;;;24.01;45.89;102011.75;5075819;28;45456;-84
2022/07/15 08:32:50;;;;;;;;;2.33;2.33;;;;;24.05;45.33;102016.16;5076389;28;45302;-81
2022/07/15 08:35:15;;;;;;;;;2.00;2.00;;;;;24.07;45.29;102016.09;5074344;28;71567;-80
2022/07/15 08:37:41;;;;;;;;;2.67;2.33;;;;;24.10;44.75;102025.03;5074223;28;59770;-79
2022/07/15 08:40:09;;;;;;;;;5.00;2.00;;;;;24.11;44.95;102016.00;5075380;28;45479;-79
2022/07/15 08:42:34;;;;;;;;;3.67;3.67;;;;;24.15;45.00;102014.09;5073668;28;45652;-80
2022/07/15 08:45:00;;;;;;;;;1.33;1.33;;;;;24.18;45.30;102012.22;5074776;28;47516;-82
2022/07/15 08:47:25;;;;;;;;;3.00;3.00;;;;;24.21;45.21;102008.53;5075268;28;45596;-83
2022/07/15 08:49:57;;;;;;;;;5.00;3.00;;;;;24.27;45.19;102009.25;5048624;28;45499;-81
2022/07/15 08:52:24;;;;;;;;;5.00;3.67;;;;;24.34;45.05;101998.28;5073833;28;45615;-79
2022/07/15 08:54:49;;;;;;;;;4.67;3.00;;;;;24.37;44.73;101991.03;5074842;28;46368;-79
2022/07/15 08:57:15;;;;;;;;;2.00;2.00;;;;;24.38;44.51;101992.78;5074327;28;62807;-79
2022/07/15 08:59:42;;;;;;;;;2.33;2.00;;;;;24.40;44.31;101990.97;5075466;28;60830;-78
2022/07/15 09:02:08;;;;;;;;;4.00;2.00;;;;;24.42;43.67;101988.22;5075926;28;45432;-77
2022/07/15 09:04:33;;;;;;;;;3.00;2.00;;;;;24.44;43.52;101991.72;5055909;28;48393;-77
2022/07/15 09:07:04;;;;;;;;;3.00;2.00;;;;;24.45;43.56;101988.09;5075552;28;45847;-81
2022/07/15 09:09:29;;;;;;;;;2.33;2.33;;;;;24.48;43.11;101991.59;5072789;28;45521;-79
2022/07/15 09:11:58;;;;;;;;;1.67;1.67;;;;;24.50;42.95;101987.06;5160994;22;45513;-79
2022/07/15 09:14:28;;;;;;;;;1.00;1.00;;;;;24.53;42.65;101984.25;5068356;28;47821;-79
2022/07/15 09:17:11;;;;;;;;;4.33;3.00;;;;;24.54;42.53;101980.63;5072213;28;45516;-80
2022/07/15 09:19:58;;;;;;;;;2.00;2.00;;;;;24.56;41.40;101988.72;5062533;28;45455;-80
2022/07/15 09:22:25;;;;;;;;;2.00;2.00;;;;;24.60;42.06;101993.06;5068053;28;45586;-80
2022/07/15 09:24:54;;;;;;;;;3.67;2.00;;;;;24.63;42.17;101995.69;5070960;28;46425;-79
2022/07/15 09:27:27;;;;;;;;;2.00;2.00;;;;;24.71;41.76;102004.44;5044507;28;45558;-80
2022/07/15 09:38:05;;;;;;;;;1.67;1.67;;;;;24.93;40.24;101987.59;5069798;28;45721;-77
2022/07/15 09:40:33;;;;;;;;;2.00;1.00;;;;;24.97;40.18;101987.44;5074182;28;45489;-79
2022/07/15 09:43:05;;;;;;;;;1.00;1.00;;;;;24.97;39.81;101982.03;5057351;28;45577;-79
2022/07/15 09:45:31;;;;;;;;;1.00;1.00;;;;;25.00;39.88;101986.50;5033319;28;47739;-80
2022/07/15 09:48:06;;;;;;;;;4.00;1.00;;;;;25.07;39.68;101988.09;5076043;28;45359;-81
2022/07/15 09:50:35;;;;;;;;;1.67;1.67;;;;;25.13;38.77;101976.22;5072552;28;45446;-80
2022/07/15 09:53:03;;;;;;;;;3.33;1.00;;;;;25.20;38.95;101984.09;5057050;28;45553;-79
2022/07/15 09:55:29;;;;;;;;;2.67;1.00;;;;;25.21;39.35;101980.44;5042353;28;46959;-78
2022/07/15 09:57:54;;;;;;;;;7.67;5.00;;;;;25.24;39.04;101979.44;5076260;28;56574;-80
2022/07/15 10:00:20;;;;;;;;;6.33;4.00;;;;;25.31;39.12;101981.03;5069955;28;45419;-79
2022/07/15 10:02:45;;;;;;;;;2.00;2.00;;;;;25.37;39.15;101975.44;5074219;28;55224;-79
2022/07/15 10:05:11;;;;;;;;;2.33;2.33;;;;;25.41;39.06;101968.09;5058611;28;63835;-79
2022/07/15 10:07:37;;;;;;;;;2.67;2.00;;;;;25.46;38.67;101964.31;5067203;28;45475;-79
2022/07/15 10:10:03;;;;;;;;;2.00;2.00;;;;;25.51;38.91;101973.16;5077048;28;50559;-79
2022/07/15 10:12:42;;;;;;;;;3.67;2.00;;;;;25.56;38.62;101975.69;5073059;28;45527;-79
2022/07/15 10:15:30;;;;;;;;;3.00;1.00;;;;;25.62;37.94;101972.81;5051595;28;46138;-79
2022/07/15 10:18:10;;;;;;;;;2.00;0.00;;;;;25.66;37.44;101974.47;5066444;28;45504;-79
2022/07/15 10:21:03;;;;;;;;;2.00;1.00;;;;;25.71;37.71;101979.72;5060608;28;45454;-79
2022/07/15 10:23:34;;;;;;;;;2.00;1.00;;;;;25.74;38.24;101964.31;5078720;28;45428;-79
2022/07/15 10:26:20;;;;;;;;;4.67;2.00;;;;;25.79;37.46;101956.91;5078557;28;46490;-80
2022/07/15 10:29:21;;;;;;;;;1.00;1.00;;;;;25.86;38.32;101961.16;5078495;28;45614;-79
2022/07/15 10:31:55;;;;;;;;;4.00;4.00;;;;;25.93;38.00;101950.13;4977709;28;45460;-80
2022/07/15 10:34:21;;;;;;;;;1.00;1.00;;;;;25.98;38.11;101950.84;5058273;28;45726;-79
2022/07/15 10:36:46;;;;;;;;;3.00;1.00;;;;;26.04;36.89;101946.09;5060921;28;45663;-79
2022/07/15 10:39:12;;;;;;;;;1.00;1.00;;;;;26.09;37.54;101935.97;5053064;28;46217;-83
2022/07/15 10:41:57;;;;;;;;;5.00;2.00;;;;;26.19;37.55;101938.38;5069660;28;45611;-81
2022/07/15 10:44:25;;;;;;;;;1.33;1.33;;;;;26.24;38.26;101937.25;5068670;28;45626;-80
2022/07/15 10:47:12;;;;;;;;;2.00;2.00;;;;;26.31;38.00;101936.09;5058062;28;45713;-81
2022/07/15 10:49:38;;;;;;;;;7.00;1.67;;;;;26.37;38.40;101943.13;5055054;28;46352;-81
2022/07/15 10:52:14;;;;;;;;;3.00;1.67;;;;;26.45;37.08;101940.16;5071178;28;45559;-81
2022/07/15 10:55:04;;;;;;;;;3.00;2.00;;;;;26.49;37.08;101929.13;5068997;28;45374;-84
2022/07/15 10:57:44;;;;;;;;;2.00;1.00;;;;;26.53;35.57;101925.38;5072895;28;47780;-82
2022/07/15 11:00:15;;;;;;;;;1.00;1.00;;;;;26.56;35.54;101922.53;5065109;28;45275;-80
2022/07/15 11:03:01;;;;;;;;;1.33;1.33;;;;;26.59;35.50;101927.84;5070612;28;46707;-80
2022/07/15 11:05:26;;;;;;;;;1.33;1.33;;;;;26.65;35.18;101926.72;5053117;28;45607;-79
2022/07/15 11:07:51;;;;;;;;;1.00;1.00;;;;;26.68;35.51;101931.13;5055335;28;66550;-79
2022/07/15 11:10:18;;;;;;;;;1.33;1.33;;;;;26.70;34.79;101924.72;5069656;28;67206;-80
2022/07/15 11:12:49;;;;;;;;;1.00;1.00;;;;;26.74;36.01;101928.19;5054236;28;45414;-80
2022/07/15 11:15:20;;;;;;;;;4.33;1.00;;;;;26.76;35.45;101932.59;5073896;28;45653;-80
2022/07/15 11:17:47;;;;;;;;;1.00;1.00;;;;;26.78;36.39;101930.72;5064110;28;47444;-80
2022/07/15 11:20:21;;;;;;;;;1.00;1.00;;;;;26.80;34.18;101925.25;5046450;28;45457;-80
2022/07/15 11:22:58;;;;;;;;;1.00;1.00;;;;;26.82;36.50;101921.53;5052422;28;45371;-81
2022/07/15 11:25:27;;;;;;;;;1.00;1.00;;;;;26.85;35.77;101909.69;5065441;28;45493;-81
2022/07/15 11:31:15;;;;;;;;;1.00;1.00;;;;;26.96;37.15;101907.44;5069391;28;45947;-81
2022/07/15 11:33:42;;;;;;;;;2.00;2.00;;;;;27.01;35.81;101901.81;5074317;28;63386;-80
2022/07/15 11:36:17;;;;;;;;;2.00;2.00;;;;;27.07;35.73;101898.91;5072896;28;55774;-80
2022/07/15 11:38:42;;;;;;;;;1.00;1.00;;;;;27.12;35.16;101896.88;5076566;28;45814;-82
2022/07/15 11:46:54;;;;;;;;;2.00;2.00;;;;;27.32;34.93;101896.03;5050046;28;45510;-81